sensor_id;sensor_type;location;lat;lon;timestamp;temperature;humidity
45729;DHT22;31439;53.512;10.206;2022-09-01T00:00:23;15.20;99.90
45729;DHT22;31439;53.512;10.206;2022-09-01T00:02:54;15.20;99.90
45729;DHT22;31439;53.512;10.206;2022-09-01T00:05:19;15.20;99.90
45729;DHT22;31439;53.512;10.206;2022-09-01T00:07:45;15.00;99.90
45729;DHT22;31439;53.512;10.206;2022-09-01T00:10:11;15.00;99.90
45729;DHT22;31439;53.512;10.206;2022-09-01T00:12:37;15.00;99.90
45729;DHT22;31439;53.512;10.206;2022-09-01T00:15:06;14.90;99.90
45729;DHT22;31439;53.512;10.206;2022-09-01T00:17:32;15.00;99.90
45729;DHT22;31439;53.512;10.206;2022-09-01T00:19:58;15.00;99.90
45729;DHT22;31439;53.512;10.206;2022-09-01T00:22:24;14.90;99.90
45729;DHT22;31439;53.512;10.206;2022-09-01T00:24:50;14.90;99.90
45729;DHT22;31439;53.512;10.206;2022-09-01T00:27:16;15.00;99.90
45729;DHT22;31439;53.512;10.206;2022-09-01T00:29:42;14.90;99.90
45729;DHT22;31439;53.512;10.206;2022-09-01T00:32:08;14.80;99.90
45729;DHT22;31439;53.512;10.206;2022-09-01T00:34:33;14.80;99.90
45729;DHT22;31439;53.512;10.206;2022-09-01T00:36:59;14.80;99.90
45729;DHT22;31439;53.512;10.206;2022-09-01T00:39:24;14.70;99.90
45729;DHT22;31439;53.512;10.206;2022-09-01T00:41:50;14.70;99.90
45729;DHT22;31439;53.512;10.206;2022-09-01T00:44:19;14.80;99.90
45729;DHT22;31439;53.512;10.206;2022-09-01T00:46:49;14.80;99.90
45729;DHT22;31439;53.512;10.206;2022-09-01T00:49:35;14.80;99.90
45729;DHT22;31439;53.512;10.206;2022-09-01T00:52:10;14.80;99.90
45729;DHT22;31439;53.512;10.206;2022-09-01T00:54:40;14.80;99.90
45729;DHT22;31439;53.512;10.206;2022-09-01T00:57:09;14.80;99.90
45729;DHT22;31439;53.512;10.206;2022-09-01T00:59:41;14.80;99.90
45729;DHT22;31439;53.512;10.206;2022-09-01T01:02:08;14.70;99.90
45729;DHT22;31439;53.512;10.206;2022-09-01T01:04:35;14.70;99.90
45729;DHT22;31439;53.512;10.206;2022-09-01T01:07:02;14.70;99.90
45729;DHT22;31439;53.512;10.206;2022-09-01T01:09:32;14.70;99.90
45729;DHT22;31439;53.512;10.206;2022-09-01T01:11:59;14.70;99.90
45729;DHT22;31439;53.512;10.206;2022-09-01T01:14:27;14.70;99.90
45729;DHT22;31439;53.512;10.206;2022-09-01T01:16:57;14.60;99.90
45729;DHT22;31439;53.512;10.206;2022-09-01T01:19:31;14.60;99.90
45729;DHT22;31439;53.512;10.206;2022-09-01T01:22:27;14.60;99.90
45729;DHT22;31439;53.512;10.206;2022-09-01T01:25:12;14.60;99.90
45729;DHT22;31439;53.512;10.206;2022-09-01T01:27:38;14.60;99.90
45729;DHT22;31439;53.512;10.206;2022-09-01T01:30:10;14.60;99.90
45729;DHT22;31439;53.512;10.206;2022-09-01T01:32:39;14.60;99.90
45729;DHT22;31439;53.512;10.206;2022-09-01T01:35:10;14.60;99.90
45729;DHT22;31439;53.512;10.206;2022-09-01T01:37:43;14.60;99.90
45729;DHT22;31439;53.512;10.206;2022-09-01T01:40:10;14.60;99.90
45729;DHT22;31439;53.512;10.206;2022-09-01T01:42:42;14.60;99.90
45729;DHT22;31439;53.512;10.206;2022-09-01T01:45:09;14.60;99.90
45729;DHT22;31439;53.512;10.206;2022-09-01T01:47:37;14.60;99.90
45729;DHT22;31439;53.512;10.206;2022-09-01T01:50:04;14.70;99.90
45729;DHT22;31439;53.512;10.206;2022-09-01T01:52:34;14.70;99.90
45729;DHT22;31439;53.512;10.206;2022-09-01T01:55:01;14.70;99.90
45729;DHT22;31439;53.512;10.206;2022-09-01T01:57:26;14.70;99.90
45729;DHT22;31439;53.512;10.206;2022-09-01T01:59:56;14.70;99.90
45729;DHT22;31439;53.512;10.206;2022-09-01T02:02:22;14.70;99.90
45729;DHT22;31439;53.512;10.206;2022-09-01T02:04:48;14.80;99.90
45729;DHT22;31439;53.512;10.206;2022-09-01T02:07:13;14.70;99.90
45729;DHT22;31439;53.512;10.206;2022-09-01T02:09:40;14.70;99.90
45729;DHT22;31439;53.512;10.206;2022-09-01T02:12:08;14.80;99.90
45729;DHT22;31439;53.512;10.206;2022-09-01T02:14:34;14.80;99.90
45729;DHT22;31439;53.512;10.206;2022-09-01T02:17:00;14.70;99.90
45729;DHT22;31439;53.512;10.206;2022-09-01T02:19:26;14.70;99.90
45729;DHT22;31439;53.512;10.206;2022-09-01T02:21:52;14.80;99.90
45729;DHT22;31439;53.512;10.206;2022-09-01T02:24:21;14.70;99.90
45729;DHT22;31439;53.512;10.206;2022-09-01T02:26:48;14.60;99.90
45729;DHT22;31439;53.512;10.206;2022-09-01T02:29:17;14.70;99.90
45729;DHT22;31439;53.512;10.206;2022-09-01T02:31:48;14.70;99.90
45729;DHT22;31439;53.512;10.206;2022-09-01T02:34:14;14.60;99.90
45729;DHT22;31439;53.512;10.206;2022-09-01T02:36:42;14.60;99.90
45729;DHT22;31439;53.512;10.206;2022-09-01T02:39:12;14.60;99.90
45729;DHT22;31439;53.512;10.206;2022-09-01T02:41:38;14.50;99.90
45729;DHT22;31439;53.512;10.206;2022-09-01T02:44:04;14.50;99.90
45729;DHT22;31439;53.512;10.206;2022-09-01T02:46:39;14.50;99.90
45729;DHT22;31439;53.512;10.206;2022-09-01T02:49:12;14.50;99.90
45729;DHT22;31439;53.512;10.206;2022-09-01T02:51:43;14.50;99.90
45729;DHT22;31439;53.512;10.206;2022-09-01T02:54:10;14.40;99.90
45729;DHT22;31439;53.512;10.206;2022-09-01T02:56:43;14.30;99.90
45729;DHT22;31439;53.512;10.206;2022-09-01T02:59:16;14.30;99.90
45729;DHT22;31439;53.512;10.206;2022-09-01T03:01:42;14.30;99.90
45729;DHT22;31439;53.512;10.206;2022-09-01T03:04:10;14.30;99.90
45729;DHT22;31439;53.512;10.206;2022-09-01T03:06:37;14.30;99.90
45729;DHT22;31439;53.512;10.206;2022-09-01T03:09:07;14.20;99.90
45729;DHT22;31439;53.512;10.206;2022-09-01T03:11:36;14.30;99.90
45729;DHT22;31439;53.512;10.206;2022-09-01T03:14:03;14.30;99.90
45729;DHT22;31439;53.512;10.206;2022-09-01T03:16:29;14.20;99.90
45729;DHT22;31439;53.512;10.206;2022-09-01T03:18:55;14.20;99.90
45729;DHT22;31439;53.512;10.206;2022-09-01T03:21:21;14.30;99.90
45729;DHT22;31439;53.512;10.206;2022-09-01T03:23:50;14.20;99.90
45729;DHT22;31439;53.512;10.206;2022-09-01T03:26:18;14.10;99.90
45729;DHT22;31439;53.512;10.206;2022-09-01T03:28:46;14.10;99.90
45729;DHT22;31439;53.512;10.206;2022-09-01T03:31:12;14.10;99.90
45729;DHT22;31439;53.512;10.206;2022-09-01T03:33:38;14.00;99.90
45729;DHT22;31439;53.512;10.206;2022-09-01T03:36:05;14.00;99.90
45729;DHT22;31439;53.512;10.206;2022-09-01T03:38:31;13.90;99.90
45729;DHT22;31439;53.512;10.206;2022-09-01T03:41:00;13.90;99.90
45729;DHT22;31439;53.512;10.206;2022-09-01T03:43:32;13.90;99.90
45729;DHT22;31439;53.512;10.206;2022-09-01T03:45:58;14.00;99.90
45729;DHT22;31439;53.512;10.206;2022-09-01T03:48:26;14.00;99.90
45729;DHT22;31439;53.512;10.206;2022-09-01T03:50:54;14.10;99.90
45729;DHT22;31439;53.512;10.206;2022-09-01T03:53:22;14.10;99.90
45729;DHT22;31439;53.512;10.206;2022-09-01T03:55:52;14.10;99.90
45729;DHT22;31439;53.512;10.206;2022-09-01T03:58:22;14.10;99.90
45729;DHT22;31439;53.512;10.206;2022-09-01T04:00:53;14.10;99.90
45729;DHT22;31439;53.512;10.206;2022-09-01T04:03:20;14.10;99.90
45729;DHT22;31439;53.512;10.206;2022-09-01T04:05:48;14.10;99.90
45729;DHT22;31439;53.512;10.206;2022-09-01T04:08:16;14.10;99.90
45729;DHT22;31439;53.512;10.206;2022-09-01T04:10:51;14.10;99.90
45729;DHT22;31439;53.512;10.206;2022-09-01T04:13:22;14.10;99.90
45729;DHT22;31439;53.512;10.206;2022-09-01T04:15:48;14.10;99.90
45729;DHT22;31439;53.512;10.206;2022-09-01T04:18:15;14.00;99.90
45729;DHT22;31439;53.512;10.206;2022-09-01T04:20:47;14.10;99.90
45729;DHT22;31439;53.512;10.206;2022-09-01T04:23:19;14.00;99.90
45729;DHT22;31439;53.512;10.206;2022-09-01T04:25:48;14.00;99.90
45729;DHT22;31439;53.512;10.206;2022-09-01T04:28:16;14.00;99.90
45729;DHT22;31439;53.512;10.206;2022-09-01T04:30:55;13.90;99.90
45729;DHT22;31439;53.512;10.206;2022-09-01T04:33:22;13.90;99.90
45729;DHT22;31439;53.512;10.206;2022-09-01T04:35:49;13.90;99.90
45729;DHT22;31439;53.512;10.206;2022-09-01T04:38:20;13.90;99.90
45729;DHT22;31439;53.512;10.206;2022-09-01T04:40:46;13.90;99.90
45729;DHT22;31439;53.512;10.206;2022-09-01T04:43:14;13.90;99.90
45729;DHT22;31439;53.512;10.206;2022-09-01T04:45:39;13.90;99.90
45729;DHT22;31439;53.512;10.206;2022-09-01T04:48:05;13.90;99.90
45729;DHT22;31439;53.512;10.206;2022-09-01T04:50:32;13.90;99.90
45729;DHT22;31439;53.512;10.206;2022-09-01T04:53:00;13.80;99.90
45729;DHT22;31439;53.512;10.206;2022-09-01T04:55:27;13.80;99.90
45729;DHT22;31439;53.512;10.206;2022-09-01T04:57:55;13.80;99.90
45729;DHT22;31439;53.512;10.206;2022-09-01T05:00:23;13.80;99.90
45729;DHT22;31439;53.512;10.206;2022-09-01T05:02:51;13.80;99.90
45729;DHT22;31439;53.512;10.206;2022-09-01T05:05:21;13.90;99.90
45729;DHT22;31439;53.512;10.206;2022-09-01T05:07:48;13.90;99.90
45729;DHT22;31439;53.512;10.206;2022-09-01T05:10:21;14.00;99.90
45729;DHT22;31439;53.512;10.206;2022-09-01T05:12:47;14.10;99.90
45729;DHT22;31439;53.512;10.206;2022-09-01T05:15:14;14.10;99.90
45729;DHT22;31439;53.512;10.206;2022-09-01T05:17:42;14.20;99.90
45729;DHT22;31439;53.512;10.206;2022-09-01T05:20:09;14.20;99.90
45729;DHT22;31439;53.512;10.206;2022-09-01T05:22:36;14.20;99.90
45729;DHT22;31439;53.512;10.206;2022-09-01T05:25:06;14.20;99.90
45729;DHT22;31439;53.512;10.206;2022-09-01T05:27:43;14.20;99.90
45729;DHT22;31439;53.512;10.206;2022-09-01T05:30:17;14.30;99.90
45729;DHT22;31439;53.512;10.206;2022-09-01T05:32:43;14.40;99.90
45729;DHT22;31439;53.512;10.206;2022-09-01T05:35:11;14.40;99.90
45729;DHT22;31439;53.512;10.206;2022-09-01T05:37:37;14.40;99.90
45729;DHT22;31439;53.512;10.206;2022-09-01T05:40:06;14.50;99.90
45729;DHT22;31439;53.512;10.206;2022-09-01T05:42:34;14.50;99.90
45729;DHT22;31439;53.512;10.206;2022-09-01T05:45:04;14.60;99.90
45729;DHT22;31439;53.512;10.206;2022-09-01T05:47:30;14.60;99.90
45729;DHT22;31439;53.512;10.206;2022-09-01T05:50:03;14.60;99.90
45729;DHT22;31439;53.512;10.206;2022-09-01T05:52:32;14.60;99.90
45729;DHT22;31439;53.512;10.206;2022-09-01T05:54:58;14.60;99.90
45729;DHT22;31439;53.512;10.206;2022-09-01T05:57:24;14.70;99.90
45729;DHT22;31439;53.512;10.206;2022-09-01T05:59:50;14.80;99.90
45729;DHT22;31439;53.512;10.206;2022-09-01T06:02:19;14.90;99.90
45729;DHT22;31439;53.512;10.206;2022-09-01T06:04:46;14.90;99.90
45729;DHT22;31439;53.512;10.206;2022-09-01T06:07:13;14.90;99.90
45729;DHT22;31439;53.512;10.206;2022-09-01T06:09:48;15.10;99.90
45729;DHT22;31439;53.512;10.206;2022-09-01T06:12:15;15.10;99.90
45729;DHT22;31439;53.512;10.206;2022-09-01T06:14:50;15.20;99.90
45729;DHT22;31439;53.512;10.206;2022-09-01T06:17:18;15.30;99.90
45729;DHT22;31439;53.512;10.206;2022-09-01T06:19:50;15.30;99.90
45729;DHT22;31439;53.512;10.206;2022-09-01T06:22:17;15.30;99.90
45729;DHT22;31439;53.512;10.206;2022-09-01T06:24:45;15.40;99.90
45729;DHT22;31439;53.512;10.206;2022-09-01T06:27:12;15.50;99.90
45729;DHT22;31439;53.512;10.206;2022-09-01T06:29:43;15.50;99.90
45729;DHT22;31439;53.512;10.206;2022-09-01T06:32:10;16.10;99.90
45729;DHT22;31439;53.512;10.206;2022-09-01T06:34:41;16.70;99.90
45729;DHT22;31439;53.512;10.206;2022-09-01T06:37:10;17.00;99.90
45729;DHT22;31439;53.512;10.206;2022-09-01T06:39:36;17.30;99.90
45729;DHT22;31439;53.512;10.206;2022-09-01T06:42:01;17.00;99.90
45729;DHT22;31439;53.512;10.206;2022-09-01T06:44:27;16.70;99.90
45729;DHT22;31439;53.512;10.206;2022-09-01T06:46:55;16.50;99.90
45729;DHT22;31439;53.512;10.206;2022-09-01T06:49:20;16.40;99.90
45729;DHT22;31439;53.512;10.206;2022-09-01T06:51:47;16.40;99.90
45729;DHT22;31439;53.512;10.206;2022-09-01T06:54:16;16.30;99.90
45729;DHT22;31439;53.512;10.206;2022-09-01T06:56:44;16.40;99.90
45729;DHT22;31439;53.512;10.206;2022-09-01T06:59:09;16.40;99.90
45729;DHT22;31439;53.512;10.206;2022-09-01T07:01:39;16.40;99.90
45729;DHT22;31439;53.512;10.206;2022-09-01T07:04:05;16.40;99.90
45729;DHT22;31439;53.512;10.206;2022-09-01T07:06:31;16.40;99.90
45729;DHT22;31439;53.512;10.206;2022-09-01T07:08:58;16.50;99.90
45729;DHT22;31439;53.512;10.206;2022-09-01T07:11:28;16.60;99.90
45729;DHT22;31439;53.512;10.206;2022-09-01T07:13:58;16.60;99.90
45729;DHT22;31439;53.512;10.206;2022-09-01T07:16:27;16.70;99.90
45729;DHT22;31439;53.512;10.206;2022-09-01T07:18:55;16.80;99.90
45729;DHT22;31439;53.512;10.206;2022-09-01T07:21:23;16.80;99.90
45729;DHT22;31439;53.512;10.206;2022-09-01T07:23:49;16.90;99.90
45729;DHT22;31439;53.512;10.206;2022-09-01T07:26:16;16.90;99.90
45729;DHT22;31439;53.512;10.206;2022-09-01T07:28:48;17.00;99.90
45729;DHT22;31439;53.512;10.206;2022-09-01T07:31:24;17.10;99.90
45729;DHT22;31439;53.512;10.206;2022-09-01T07:33:52;17.10;99.90
45729;DHT22;31439;53.512;10.206;2022-09-01T07:36:19;17.20;99.90
45729;DHT22;31439;53.512;10.206;2022-09-01T07:38:46;17.20;99.90
45729;DHT22;31439;53.512;10.206;2022-09-01T07:41:19;17.30;99.90
45729;DHT22;31439;53.512;10.206;2022-09-01T07:43:46;17.40;99.90
45729;DHT22;31439;53.512;10.206;2022-09-01T07:46:15;17.50;99.90
45729;DHT22;31439;53.512;10.206;2022-09-01T07:48:42;17.60;99.90
45729;DHT22;31439;53.512;10.206;2022-09-01T07:51:11;17.60;99.90
45729;DHT22;31439;53.512;10.206;2022-09-01T07:53:37;17.70;99.90
45729;DHT22;31439;53.512;10.206;2022-09-01T07:56:08;17.70;99.90
45729;DHT22;31439;53.512;10.206;2022-09-01T07:58:36;17.80;99.90
45729;DHT22;31439;53.512;10.206;2022-09-01T08:01:07;17.90;99.90
45729;DHT22;31439;53.512;10.206;2022-09-01T08:03:33;17.90;99.90
45729;DHT22;31439;53.512;10.206;2022-09-01T08:06:08;18.00;99.90
45729;DHT22;31439;53.512;10.206;2022-09-01T08:08:35;18.00;99.90
45729;DHT22;31439;53.512;10.206;2022-09-01T08:11:02;18.00;99.90
45729;DHT22;31439;53.512;10.206;2022-09-01T08:13:27;18.10;99.90
45729;DHT22;31439;53.512;10.206;2022-09-01T08:15:53;18.20;99.90
45729;DHT22;31439;53.512;10.206;2022-09-01T08:18:19;18.30;99.90
45729;DHT22;31439;53.512;10.206;2022-09-01T08:20:45;18.30;99.90
45729;DHT22;31439;53.512;10.206;2022-09-01T08:23:16;18.40;99.90
45729;DHT22;31439;53.512;10.206;2022-09-01T08:25:44;18.40;99.90
45729;DHT22;31439;53.512;10.206;2022-09-01T08:28:11;18.50;99.90
45729;DHT22;31439;53.512;10.206;2022-09-01T08:30:39;18.60;99.90
45729;DHT22;31439;53.512;10.206;2022-09-01T08:33:05;18.70;99.90
45729;DHT22;31439;53.512;10.206;2022-09-01T08:35:31;18.70;99.90
45729;DHT22;31439;53.512;10.206;2022-09-01T08:37:57;18.80;99.90
45729;DHT22;31439;53.512;10.206;2022-09-01T08:40:24;18.80;99.90
45729;DHT22;31439;53.512;10.206;2022-09-01T08:43:05;18.90;99.90
45729;DHT22;31439;53.512;10.206;2022-09-01T08:45:49;19.00;99.90
45729;DHT22;31439;53.512;10.206;2022-09-01T08:50:58;19.10;99.90
45729;DHT22;31439;53.512;10.206;2022-09-01T08:53:35;19.20;99.90
45729;DHT22;31439;53.512;10.206;2022-09-01T08:56:01;19.20;99.90
45729;DHT22;31439;53.512;10.206;2022-09-01T08:58:29;19.30;99.90
45729;DHT22;31439;53.512;10.206;2022-09-01T09:01:02;19.40;99.90
45729;DHT22;31439;53.512;10.206;2022-09-01T09:14:03;19.70;99.90
45729;DHT22;31439;53.512;10.206;2022-09-01T09:16:41;19.60;99.90
45729;DHT22;31439;53.512;10.206;2022-09-01T09:19:18;19.70;99.90
45729;DHT22;31439;53.512;10.206;2022-09-01T09:21:48;19.80;99.90
45729;DHT22;31439;53.512;10.206;2022-09-01T09:32:52;20.10;99.90
45729;DHT22;31439;53.512;10.206;2022-09-01T09:35:42;20.20;99.90
45729;DHT22;31439;53.512;10.206;2022-09-01T09:43:29;20.50;99.90
45729;DHT22;31439;53.512;10.206;2022-09-01T09:49:15;20.90;99.90
45729;DHT22;31439;53.512;10.206;2022-09-01T09:51:51;21.00;99.90
45729;DHT22;31439;53.512;10.206;2022-09-01T10:02:31;21.10;99.90
45729;DHT22;31439;53.512;10.206;2022-09-01T10:04:59;21.10;99.90
45729;DHT22;31439;53.512;10.206;2022-09-01T10:07:35;21.10;99.90
45729;DHT22;31439;53.512;10.206;2022-09-01T10:10:27;20.90;99.90
45729;DHT22;31439;53.512;10.206;2022-09-01T10:12:58;20.80;99.90
45729;DHT22;31439;53.512;10.206;2022-09-01T10:15:27;20.80;99.90
45729;DHT22;31439;53.512;10.206;2022-09-01T10:17:59;21.10;99.90
45729;DHT22;31439;53.512;10.206;2022-09-01T10:20:27;21.10;99.90
45729;DHT22;31439;53.512;10.206;2022-09-01T10:25:31;21.40;99.90
45729;DHT22;31439;53.512;10.206;2022-09-01T10:28:05;21.40;99.90
45729;DHT22;31439;53.512;10.206;2022-09-01T10:30:33;21.40;99.90
45729;DHT22;31439;53.512;10.206;2022-09-01T10:33:01;21.50;99.90
45729;DHT22;31439;53.512;10.206;2022-09-01T10:35:32;21.50;99.90
45729;DHT22;31439;53.512;10.206;2022-09-01T10:38:02;21.50;99.90
45729;DHT22;31439;53.512;10.206;2022-09-01T10:40:42;21.70;99.90
45729;DHT22;31439;53.512;10.206;2022-09-01T10:43:35;21.90;99.90
45729;DHT22;31439;53.512;10.206;2022-09-01T10:48:55;21.90;99.90
45729;DHT22;31439;53.512;10.206;2022-09-01T10:53:48;22.20;99.90
45729;DHT22;31439;53.512;10.206;2022-09-01T11:04:13;22.40;99.90
45729;DHT22;31439;53.512;10.206;2022-09-01T11:06:58;22.40;99.90
45729;DHT22;31439;53.512;10.206;2022-09-01T11:17:33;22.20;99.90
45729;DHT22;31439;53.512;10.206;2022-09-01T11:25:44;21.90;99.90
45729;DHT22;31439;53.512;10.206;2022-09-01T11:38:49;21.10;99.90
45729;DHT22;31439;53.512;10.206;2022-09-01T11:41:27;21.00;99.90
45729;DHT22;31439;53.512;10.206;2022-09-01T11:44:12;21.00;99.90
45729;DHT22;31439;53.512;10.206;2022-09-01T11:46:38;20.90;99.90
45729;DHT22;31439;53.512;10.206;2022-09-01T11:49:27;20.80;99.90
45729;DHT22;31439;53.512;10.206;2022-09-01T11:51:54;20.60;99.90
45729;DHT22;31439;53.512;10.206;2022-09-01T11:54:22;20.80;99.90
45729;DHT22;31439;53.512;10.206;2022-09-01T11:56:48;21.00;99.90
45729;DHT22;31439;53.512;10.206;2022-09-01T11:59:13;21.40;99.90
45729;DHT22;31439;53.512;10.206;2022-09-01T12:01:39;21.50;99.90
45729;DHT22;31439;53.512;10.206;2022-09-01T12:04:21;21.60;99.90
45729;DHT22;31439;53.512;10.206;2022-09-01T12:06:52;21.90;99.90
45729;DHT22;31439;53.512;10.206;2022-09-01T12:09:19;22.00;99.90
45729;DHT22;31439;53.512;10.206;2022-09-01T12:11:45;22.20;99.90
45729;DHT22;31439;53.512;10.206;2022-09-01T12:14:17;22.40;99.90
45729;DHT22;31439;53.512;10.206;2022-09-01T12:16:44;22.60;99.90
45729;DHT22;31439;53.512;10.206;2022-09-01T12:19:26;22.70;99.90
45729;DHT22;31439;53.512;10.206;2022-09-01T12:22:20;22.70;99.90
45729;DHT22;31439;53.512;10.206;2022-09-01T12:24:51;22.50;99.90
45729;DHT22;31439;53.512;10.206;2022-09-01T12:27:18;22.10;99.90
45729;DHT22;31439;53.512;10.206;2022-09-01T12:29:45;22.00;99.90
45729;DHT22;31439;53.512;10.206;2022-09-01T12:32:12;22.20;99.90
45729;DHT22;31439;53.512;10.206;2022-09-01T12:35:02;22.40;99.90
45729;DHT22;31439;53.512;10.206;2022-09-01T12:37:26;22.40;99.90
45729;DHT22;31439;53.512;10.206;2022-09-01T12:39:57;22.60;99.90
45729;DHT22;31439;53.512;10.206;2022-09-01T12:42:28;23.00;99.90
45729;DHT22;31439;53.512;10.206;2022-09-01T12:45:06;23.30;99.90
45729;DHT22;31439;53.512;10.206;2022-09-01T12:50:48;23.70;99.90
45729;DHT22;31439;53.512;10.206;2022-09-01T12:52:52;23.80;99.80
45729;DHT22;31439;53.512;10.206;2022-09-01T12:55:20;24.00;99.90
45729;DHT22;31439;53.512;10.206;2022-09-01T12:57:56;23.80;98.70
45729;DHT22;31439;53.512;10.206;2022-09-01T13:00:26;23.50;98.40
45729;DHT22;31439;53.512;10.206;2022-09-01T13:08:03;23.10;99.90
45729;DHT22;31439;53.512;10.206;2022-09-01T13:10:35;23.10;99.30
45729;DHT22;31439;53.512;10.206;2022-09-01T13:13:03;23.10;97.80
45729;DHT22;31439;53.512;10.206;2022-09-01T13:15:29;23.10;97.20
45729;DHT22;31439;53.512;10.206;2022-09-01T13:17:56;23.30;98.10
45729;DHT22;31439;53.512;10.206;2022-09-01T13:20:22;23.30;98.20
45729;DHT22;31439;53.512;10.206;2022-09-01T13:22:49;23.40;99.50
45729;DHT22;31439;53.512;10.206;2022-09-01T13:25:17;23.30;97.70
45729;DHT22;31439;53.512;10.206;2022-09-01T13:27:44;23.10;98.10
45729;DHT22;31439;53.512;10.206;2022-09-01T13:30:13;22.90;97.80
45729;DHT22;31439;53.512;10.206;2022-09-01T13:32:41;22.70;99.00
45729;DHT22;31439;53.512;10.206;2022-09-01T13:35:07;22.60;99.80
45729;DHT22;31439;53.512;10.206;2022-09-01T13:37:33;22.50;99.20
45729;DHT22;31439;53.512;10.206;2022-09-01T13:40:00;22.40;99.90
45729;DHT22;31439;53.512;10.206;2022-09-01T13:42:26;22.20;99.90
45729;DHT22;31439;53.512;10.206;2022-09-01T13:44:52;22.00;99.90
45729;DHT22;31439;53.512;10.206;2022-09-01T13:47:17;21.90;99.90
45729;DHT22;31439;53.512;10.206;2022-09-01T13:49:46;21.90;99.90
45729;DHT22;31439;53.512;10.206;2022-09-01T13:52:14;21.80;99.90
45729;DHT22;31439;53.512;10.206;2022-09-01T13:54:40;21.80;99.90
45729;DHT22;31439;53.512;10.206;2022-09-01T13:57:08;21.70;99.90
45729;DHT22;31439;53.512;10.206;2022-09-01T13:59:36;21.80;99.90
45729;DHT22;31439;53.512;10.206;2022-09-01T14:02:03;21.90;99.90
45729;DHT22;31439;53.512;10.206;2022-09-01T14:04:29;22.10;99.90
45729;DHT22;31439;53.512;10.206;2022-09-01T14:06:54;22.20;99.90
45729;DHT22;31439;53.512;10.206;2022-09-01T14:09:20;22.20;99.90
45729;DHT22;31439;53.512;10.206;2022-09-01T14:11:45;22.20;99.90
45729;DHT22;31439;53.512;10.206;2022-09-01T14:14:11;22.10;99.90
45729;DHT22;31439;53.512;10.206;2022-09-01T14:16:37;22.00;99.90
45729;DHT22;31439;53.512;10.206;2022-09-01T14:19:02;21.90;99.90
45729;DHT22;31439;53.512;10.206;2022-09-01T14:21:28;21.80;99.90
45729;DHT22;31439;53.512;10.206;2022-09-01T14:23:54;21.80;99.90
45729;DHT22;31439;53.512;10.206;2022-09-01T14:26:19;21.90;99.90
45729;DHT22;31439;53.512;10.206;2022-09-01T14:28:46;21.90;99.90
45729;DHT22;31439;53.512;10.206;2022-09-01T14:31:15;21.90;99.90
45729;DHT22;31439;53.512;10.206;2022-09-01T14:33:41;21.90;99.90
45729;DHT22;31439;53.512;10.206;2022-09-01T14:36:14;21.80;99.90
45729;DHT22;31439;53.512;10.206;2022-09-01T14:38:40;21.60;99.90
45729;DHT22;31439;53.512;10.206;2022-09-01T14:41:05;21.50;99.90
45729;DHT22;31439;53.512;10.206;2022-09-01T14:43:31;21.50;99.90
45729;DHT22;31439;53.512;10.206;2022-09-01T14:46:05;21.50;99.90
45729;DHT22;31439;53.512;10.206;2022-09-01T14:48:32;21.50;99.90
45729;DHT22;31439;53.512;10.206;2022-09-01T14:50:59;21.40;99.90
45729;DHT22;31439;53.512;10.206;2022-09-01T14:53:26;21.30;99.90
45729;DHT22;31439;53.512;10.206;2022-09-01T14:55:54;21.30;99.90
45729;DHT22;31439;53.512;10.206;2022-09-01T14:58:20;21.20;99.90
45729;DHT22;31439;53.512;10.206;2022-09-01T15:00:46;21.10;99.90
45729;DHT22;31439;53.512;10.206;2022-09-01T15:03:12;21.10;99.90
45729;DHT22;31439;53.512;10.206;2022-09-01T15:05:38;21.10;99.90
45729;DHT22;31439;53.512;10.206;2022-09-01T15:08:05;21.10;99.90
45729;DHT22;31439;53.512;10.206;2022-09-01T15:10:31;21.00;99.90
45729;DHT22;31439;53.512;10.206;2022-09-01T15:12:57;20.90;99.90
45729;DHT22;31439;53.512;10.206;2022-09-01T15:15:25;21.00;99.90
45729;DHT22;31439;53.512;10.206;2022-09-01T15:17:51;21.00;99.90
45729;DHT22;31439;53.512;10.206;2022-09-01T15:20:17;21.10;99.90
45729;DHT22;31439;53.512;10.206;2022-09-01T15:23:04;21.20;99.90
45729;DHT22;31439;53.512;10.206;2022-09-01T15:25:30;21.30;99.90
45729;DHT22;31439;53.512;10.206;2022-09-01T15:27:56;21.30;99.90
45729;DHT22;31439;53.512;10.206;2022-09-01T15:30:21;21.70;99.90
45729;DHT22;31439;53.512;10.206;2022-09-01T15:32:50;21.90;99.90
45729;DHT22;31439;53.512;10.206;2022-09-01T15:35:17;21.90;99.90
45729;DHT22;31439;53.512;10.206;2022-09-01T15:37:45;22.00;99.90
45729;DHT22;31439;53.512;10.206;2022-09-01T15:40:11;21.90;99.90
45729;DHT22;31439;53.512;10.206;2022-09-01T15:42:37;22.10;99.90
45729;DHT22;31439;53.512;10.206;2022-09-01T15:45:06;22.10;99.90
45729;DHT22;31439;53.512;10.206;2022-09-01T15:47:32;22.20;99.90
45729;DHT22;31439;53.512;10.206;2022-09-01T15:49:57;22.20;99.90
45729;DHT22;31439;53.512;10.206;2022-09-01T15:52:24;22.20;99.90
45729;DHT22;31439;53.512;10.206;2022-09-01T15:54:53;22.20;99.90
45729;DHT22;31439;53.512;10.206;2022-09-01T15:57:19;22.00;99.90
45729;DHT22;31439;53.512;10.206;2022-09-01T15:59:44;21.70;99.90
45729;DHT22;31439;53.512;10.206;2022-09-01T16:02:10;21.40;99.90
45729;DHT22;31439;53.512;10.206;2022-09-01T16:04:36;21.30;99.90
45729;DHT22;31439;53.512;10.206;2022-09-01T16:07:03;21.20;99.90
45729;DHT22;31439;53.512;10.206;2022-09-01T16:09:29;21.00;99.90
45729;DHT22;31439;53.512;10.206;2022-09-01T16:11:54;21.00;99.90
45729;DHT22;31439;53.512;10.206;2022-09-01T16:14:20;21.20;99.90
45729;DHT22;31439;53.512;10.206;2022-09-01T16:17:04;21.20;99.90
45729;DHT22;31439;53.512;10.206;2022-09-01T16:24:49;21.20;99.90
45729;DHT22;31439;53.512;10.206;2022-09-01T16:27:17;21.30;99.90
45729;DHT22;31439;53.512;10.206;2022-09-01T16:29:55;21.30;99.90
45729;DHT22;31439;53.512;10.206;2022-09-01T16:32:21;21.30;99.90
45729;DHT22;31439;53.512;10.206;2022-09-01T16:34:49;21.20;99.90
45729;DHT22;31439;53.512;10.206;2022-09-01T16:49:00;21.20;99.90
45729;DHT22;31439;53.512;10.206;2022-09-01T16:51:50;21.20;99.90
45729;DHT22;31439;53.512;10.206;2022-09-01T16:57:00;21.20;99.90
45729;DHT22;31439;53.512;10.206;2022-09-01T17:05:24;21.30;99.90
45729;DHT22;31439;53.512;10.206;2022-09-01T17:14:44;20.80;99.90
45729;DHT22;31439;53.512;10.206;2022-09-01T17:17:20;20.70;99.90
45729;DHT22;31439;53.512;10.206;2022-09-01T17:20:04;20.80;99.90
45729;DHT22;31439;53.512;10.206;2022-09-01T17:23:00;20.70;99.90
45729;DHT22;31439;53.512;10.206;2022-09-01T17:28:46;20.60;99.90